Ethan, South Dakota
Current Conditions -  °F | °C
As of 2:53 PM on Friday 19 Dec 2014 (Local Time) from KMHE Reporting Station
Haze Haze  
Wind Chill: 20°   Ceiling: 600
Heat Index: 31°   Visibility: 4mi
Dew Point: 29°   Wind: 15mph
Humidity: 92%   Direction: 160°SSE
Pressure: 30.04"   Gusts: NA
Location:  43.55°N, 97.99°W
Report Text: KMHE 192053Z AUTO 16013KT 4SM BR OVC006 M01/M02 A3004 RMK AO2 SLP189 T10061017 56017
Loading
Personal Weather Stations






























Interactive Weather Map New forecast layout! Learn more

10-Day Weather Forecast

Advertisements
Track Severe Weather on mobile